createdAt,value
2022-12-04T00:01:28.090Z,98268.96
2022-12-04T00:04:01.699Z,98273.63
2022-12-04T00:06:30.164Z,98269.05
2022-12-04T00:08:58.161Z,98267.38
2022-12-04T00:11:29.736Z,98270.63
2022-12-04T00:14:04.845Z,98273.68
2022-12-04T00:16:35.545Z,98272.40
2022-12-04T00:19:04.754Z,98271.70
2022-12-04T00:21:33.165Z,98275.34
2022-12-04T00:24:01.308Z,98273.63
2022-12-04T00:26:31.382Z,98270.34
2022-12-04T00:29:00.368Z,98269.19
2022-12-04T00:31:30.759Z,98268.18
2022-12-04T00:34:00.366Z,98266.84
2022-12-04T00:36:30.075Z,98270.74
2022-12-04T00:38:59.671Z,98274.27
2022-12-04T00:41:29.723Z,98278.86
2022-12-04T00:43:58.663Z,98279.96
2022-12-04T00:46:27.442Z,98281.96
2022-12-04T00:48:55.868Z,98283.02
2022-12-04T00:51:25.576Z,98281.95
2022-12-04T00:53:54.050Z,98281.17
2022-12-04T00:56:25.809Z,98283.45
2022-12-04T00:58:57.271Z,98284.54
2022-12-04T01:01:26.602Z,98280.21
2022-12-04T01:03:55.867Z,98282.23
2022-12-04T01:06:28.233Z,98287.48
2022-12-04T01:08:58.210Z,98290.83
2022-12-04T01:11:28.237Z,98291.33
2022-12-04T01:13:57.747Z,98284.38
2022-12-04T01:16:28.336Z,98280.52
2022-12-04T01:18:56.900Z,98279.23
2022-12-04T01:21:25.107Z,98278.85
2022-12-04T01:23:53.645Z,98276.04
2022-12-04T01:26:22.335Z,98271.20
2022-12-04T01:28:50.399Z,98266.11
2022-12-04T01:31:21.275Z,98270.85
2022-12-04T01:33:50.227Z,98266.23
2022-12-04T01:36:21.716Z,98266.48
2022-12-04T01:38:50.264Z,98261.61
2022-12-04T01:41:22.842Z,98263.63
2022-12-04T01:44:20.411Z,98262.52
2022-12-04T01:46:59.778Z,98264.50
2022-12-04T01:49:38.499Z,98262.04
2022-12-04T01:52:20.573Z,98257.06
2022-12-04T01:54:56.106Z,98252.88
2022-12-04T01:57:28.195Z,98253.33
2022-12-04T02:00:00.398Z,98254.33
2022-12-04T02:02:38.058Z,98250.53
2022-12-04T02:05:10.515Z,98246.63
2022-12-04T02:07:40.572Z,98248.38
2022-12-04T02:10:10.104Z,98251.92
2022-12-04T02:12:51.013Z,98254.72
2022-12-04T02:15:24.211Z,98251.83
2022-12-04T02:18:01.296Z,98251.35
2022-12-04T02:20:35.300Z,98245.58
2022-12-04T02:23:06.340Z,98245.10
2022-12-04T02:25:59.589Z,98245.88
2022-12-04T02:28:43.617Z,98243.05
2022-12-04T02:31:17.219Z,98247.09
2022-12-04T02:34:01.607Z,98244.93
2022-12-04T02:36:34.388Z,98246.64
2022-12-04T02:39:20.689Z,98243.48
2022-12-04T02:41:57.770Z,98240.06
2022-12-04T02:44:38.530Z,98249.21
2022-12-04T02:47:12.245Z,98248.10
2022-12-04T02:50:00.248Z,98243.77
2022-12-04T02:52:39.004Z,98241.54
2022-12-04T02:55:20.285Z,98244.86
2022-12-04T02:57:58.410Z,98247.39
2022-12-04T03:00:27.999Z,98251.13
2022-12-04T03:02:56.157Z,98247.45
2022-12-04T03:05:56.745Z,98243.55
2022-12-04T03:08:39.533Z,98238.13
2022-12-04T03:11:08.825Z,98237.16
2022-12-04T03:13:44.785Z,98238.73
2022-12-04T03:16:31.153Z,98240.98
2022-12-04T03:19:04.685Z,98240.00
2022-12-04T03:21:38.591Z,98242.80
2022-12-04T03:24:07.163Z,98246.50
2022-12-04T03:26:41.648Z,98250.10
2022-12-04T03:29:12.429Z,98254.59
2022-12-04T03:31:46.751Z,98253.77
2022-12-04T03:34:26.189Z,98248.13
2022-12-04T03:36:59.489Z,98248.73
2022-12-04T03:39:42.101Z,98244.08
2022-12-04T03:42:16.314Z,98245.99
2022-12-04T03:45:09.066Z,98247.98
2022-12-04T03:48:09.101Z,98244.67
2022-12-04T03:50:39.108Z,98237.27
2022-12-04T03:53:22.124Z,98235.98
2022-12-04T03:56:20.097Z,98230.15
2022-12-04T03:59:00.152Z,98225.27
2022-12-04T04:01:34.203Z,98223.44
2022-12-04T04:04:07.740Z,98226.71
2022-12-04T04:06:44.543Z,98229.37
2022-12-04T04:09:22.987Z,98232.25
2022-12-04T04:12:18.675Z,98242.70
2022-12-04T04:15:20.306Z,98240.23
2022-12-04T04:18:09.501Z,98235.84
2022-12-04T04:20:59.859Z,98233.15
2022-12-04T04:23:53.191Z,98230.61
2022-12-04T04:26:23.807Z,98234.58
2022-12-04T04:28:51.861Z,98238.04
2022-12-04T04:31:48.913Z,98237.06
2022-12-04T04:34:31.042Z,98234.80
2022-12-04T04:37:21.728Z,98236.40
2022-12-04T04:40:05.891Z,98236.23
2022-12-04T04:42:47.459Z,98239.84
2022-12-04T04:45:25.490Z,98238.83
2022-12-04T04:48:02.498Z,98239.86
2022-12-04T04:50:33.290Z,98238.36
2022-12-04T04:53:06.282Z,98239.45
2022-12-04T04:55:36.286Z,98246.16
2022-12-04T04:58:16.561Z,98250.10
2022-12-04T05:01:07.637Z,98251.99
2022-12-04T05:03:36.240Z,98254.64
2022-12-04T05:06:04.860Z,98248.96
2022-12-04T05:08:33.853Z,98246.35
2022-12-04T05:11:02.880Z,98242.09
2022-12-04T05:13:32.004Z,98241.36
2022-12-04T05:16:05.489Z,98238.33
2022-12-04T05:18:34.974Z,98238.10
2022-12-04T05:21:18.748Z,98238.02
2022-12-04T05:23:46.854Z,98234.21
2022-12-04T05:26:14.894Z,98231.54
2022-12-04T05:28:42.964Z,98229.21
2022-12-04T05:31:11.049Z,98226.37
2022-12-04T05:33:39.418Z,98234.36
2022-12-04T05:36:10.065Z,98239.66
2022-12-04T05:38:38.324Z,98239.14
2022-12-04T05:41:07.526Z,98239.19
2022-12-04T05:43:35.629Z,98240.73
2022-12-04T05:46:05.934Z,98239.56
2022-12-04T05:48:35.737Z,98235.44
2022-12-04T05:51:08.399Z,98225.11
2022-12-04T05:53:37.380Z,98224.77
2022-12-04T05:56:07.783Z,98234.08
2022-12-04T05:58:37.849Z,98235.73
2022-12-04T06:01:15.138Z,98238.83
2022-12-04T06:03:43.899Z,98237.71
2022-12-04T06:06:21.780Z,98240.97
2022-12-04T06:08:53.080Z,98243.69
2022-12-04T06:11:39.508Z,98243.59
2022-12-04T06:14:12.875Z,98246.05
2022-12-04T06:16:44.230Z,98248.75
2022-12-04T06:19:17.518Z,98253.14
2022-12-04T06:21:48.323Z,98260.22
2022-12-04T06:24:19.811Z,98263.13
2022-12-04T06:27:18.760Z,98260.82
2022-12-04T06:29:37.251Z,98253.81
2022-12-04T06:32:05.487Z,98255.19
2022-12-04T06:34:33.936Z,98257.35
2022-12-04T06:37:02.287Z,98249.21
2022-12-04T06:39:30.398Z,98250.87
2022-12-04T06:41:58.566Z,98254.52
2022-12-04T06:44:26.846Z,98256.91
2022-12-04T06:46:55.081Z,98249.64
2022-12-04T06:49:23.259Z,98246.98
2022-12-04T06:51:51.561Z,98249.90
2022-12-04T06:54:19.915Z,98251.86
2022-12-04T06:56:49.731Z,98260.53
2022-12-04T06:59:18.052Z,98258.63
2022-12-04T07:01:46.392Z,98253.11
2022-12-04T07:04:14.424Z,98255.98
2022-12-04T07:06:42.594Z,98254.00
2022-12-04T07:09:14.192Z,98254.98
2022-12-04T07:11:44.220Z,98252.06
2022-12-04T07:14:13.335Z,98251.92
2022-12-04T07:16:42.683Z,98254.08
2022-12-04T07:19:13.708Z,98251.37
2022-12-04T07:21:43.141Z,98251.30
2022-12-04T07:24:17.297Z,98253.95
2022-12-04T07:26:46.295Z,98256.60
2022-12-04T07:29:14.669Z,98258.77
2022-12-04T07:31:44.519Z,98262.73
2022-12-04T07:34:12.962Z,98259.17
2022-12-04T07:36:41.148Z,98256.38
2022-12-04T07:39:09.929Z,98257.71
2022-12-04T07:41:38.045Z,98253.20
2022-12-04T07:44:07.501Z,98249.66
2022-12-04T07:46:35.888Z,98250.54
2022-12-04T07:49:04.466Z,98250.23
2022-12-04T07:51:32.673Z,98244.74
2022-12-04T07:54:03.667Z,98241.04
2022-12-04T07:56:33.714Z,98241.63
2022-12-04T07:59:02.607Z,98239.66
2022-12-04T08:01:31.536Z,98236.52
2022-12-04T08:04:01.146Z,98232.95
2022-12-04T08:06:30.492Z,98237.03
2022-12-04T08:08:58.695Z,98239.84
2022-12-04T08:11:28.789Z,98231.66
2022-12-04T08:13:59.517Z,98225.20
2022-12-04T08:16:29.134Z,98231.61
2022-12-04T08:18:58.343Z,98236.93
2022-12-04T08:21:30.489Z,98236.09
2022-12-04T08:24:00.777Z,98235.34
2022-12-04T08:26:30.885Z,98230.35
2022-12-04T08:29:01.317Z,98224.70
2022-12-04T08:31:31.611Z,98230.53
2022-12-04T08:34:02.943Z,98234.46
2022-12-04T08:36:31.378Z,98227.87
2022-12-04T08:38:59.803Z,98221.61
2022-12-04T08:41:28.178Z,98221.98
2022-12-04T08:43:56.608Z,98219.94
2022-12-04T08:46:27.239Z,98217.58
2022-12-04T08:48:56.256Z,98209.92
2022-12-04T08:51:27.538Z,98199.16
2022-12-04T08:53:57.350Z,98195.33
2022-12-04T08:56:26.588Z,98196.26
2022-12-04T08:58:56.453Z,98195.42
2022-12-04T09:01:25.889Z,98196.81
2022-12-04T09:03:54.950Z,98191.55
2022-12-04T09:06:24.269Z,98187.78
2022-12-04T09:08:53.863Z,98189.37
2022-12-04T09:11:24.544Z,98182.69
2022-12-04T09:13:53.704Z,98179.40
2022-12-04T09:16:22.870Z,98173.15
2022-12-04T09:18:51.812Z,98168.86
2022-12-04T09:21:22.209Z,98169.96
2022-12-04T09:23:51.043Z,98175.73
2022-12-04T09:26:25.828Z,98181.84
2022-12-04T09:28:55.594Z,98186.30
2022-12-04T09:31:25.093Z,98175.73
2022-12-04T09:33:54.245Z,98176.45
2022-12-04T09:36:22.415Z,98175.59
2022-12-04T09:38:53.263Z,98179.23
2022-12-04T09:41:48.107Z,98186.63
2022-12-04T09:44:19.642Z,98187.92
2022-12-04T09:47:12.362Z,98185.50
2022-12-04T09:49:48.014Z,98183.02
2022-12-04T09:52:31.275Z,98176.67
2022-12-04T09:55:01.150Z,98177.27
2022-12-04T09:57:38.927Z,98177.39
2022-12-04T10:00:16.705Z,98169.70
2022-12-04T10:02:52.189Z,98161.56
2022-12-04T10:05:32.512Z,98160.14
2022-12-04T10:08:08.275Z,98156.37
2022-12-04T10:11:00.749Z,98158.84
2022-12-04T10:13:28.922Z,98168.55
2022-12-04T10:16:42.073Z,98176.11
2022-12-04T10:19:36.850Z,98172.29
2022-12-04T10:22:16.596Z,98171.48
2022-12-04T10:24:44.626Z,98164.65
2022-12-04T10:27:26.601Z,98162.45
2022-12-04T10:30:04.481Z,98155.46
2022-12-04T10:32:34.166Z,98149.83
2022-12-04T10:35:29.589Z,98145.29
2022-12-04T10:38:04.992Z,98142.06
2022-12-04T10:41:14.846Z,98130.13
2022-12-04T10:43:46.346Z,98131.47
2022-12-04T10:46:29.430Z,98134.77
2022-12-04T10:49:13.359Z,98140.14
2022-12-04T10:51:44.046Z,98127.98
2022-12-04T10:54:24.199Z,98119.66
2022-12-04T10:57:00.054Z,98121.73
2022-12-04T10:59:29.557Z,98119.34
2022-12-04T11:02:16.372Z,98121.95
2022-12-04T11:04:52.817Z,98116.72
2022-12-04T11:07:28.082Z,98106.02
2022-12-04T11:10:18.535Z,98097.77
2022-12-04T11:13:00.846Z,98096.06
2022-12-04T11:15:29.770Z,98086.13
2022-12-04T11:18:09.412Z,98081.48
2022-12-04T11:20:37.612Z,98079.16
2022-12-04T11:23:05.968Z,98079.58
2022-12-04T11:25:47.175Z,98072.27
2022-12-04T11:28:40.744Z,98066.52
2022-12-04T11:31:11.029Z,98062.67
2022-12-04T11:33:45.152Z,98062.61
2022-12-04T11:36:25.384Z,98066.38
2022-12-04T11:39:04.468Z,98068.58
2022-12-04T11:41:33.151Z,98069.83
2022-12-04T11:44:01.462Z,98067.11
2022-12-04T11:46:34.328Z,98068.05
2022-12-04T11:49:03.927Z,98062.16
2022-12-04T11:52:06.170Z,98061.41
2022-12-04T11:55:00.609Z,98062.67
2022-12-04T11:57:31.907Z,98061.85
2022-12-04T12:00:16.509Z,98063.84
2022-12-04T12:03:10.963Z,98062.75
2022-12-04T12:06:17.521Z,98053.45
2022-12-04T12:09:19.667Z,98044.73
2022-12-04T12:11:57.264Z,98047.67
2022-12-04T12:14:54.264Z,98049.63
2022-12-04T12:18:10.650Z,98047.27
2022-12-04T12:20:53.601Z,98040.80
2022-12-04T12:23:36.999Z,98037.15
2022-12-04T12:26:14.681Z,98034.29
2022-12-04T12:29:04.484Z,98030.37
2022-12-04T12:31:41.527Z,98030.08
2022-12-04T12:34:23.155Z,98021.65
2022-12-04T12:36:59.278Z,98014.32
2022-12-04T12:40:06.257Z,98018.33
2022-12-04T12:42:49.952Z,98024.08
2022-12-04T12:45:39.135Z,98023.00
2022-12-04T12:48:45.885Z,98023.98
2022-12-04T12:51:42.219Z,98017.36
2022-12-04T12:54:28.824Z,98020.05
2022-12-04T12:57:09.389Z,98022.20
2022-12-04T12:59:42.584Z,98012.73
2022-12-04T13:02:26.180Z,98017.08
2022-12-04T13:04:59.310Z,98016.94
2022-12-04T13:07:54.362Z,98014.96
2022-12-04T13:11:12.690Z,98013.98
2022-12-04T13:13:45.921Z,98017.73
2022-12-04T13:16:26.287Z,98014.76
2022-12-04T13:19:19.271Z,98008.89
2022-12-04T13:21:47.241Z,98011.14
2022-12-04T13:24:37.517Z,98010.23
2022-12-04T13:27:42.984Z,98007.64
2022-12-04T13:30:21.705Z,97994.91
2022-12-04T13:32:49.677Z,97994.21
2022-12-04T13:35:46.264Z,97995.90
2022-12-04T13:38:20.086Z,97997.68
2022-12-04T13:41:11.037Z,97995.04
2022-12-04T13:43:42.391Z,97997.90
2022-12-04T13:46:34.250Z,97994.77
2022-12-04T13:49:30.169Z,97999.65
2022-12-04T13:52:00.222Z,97998.06
2022-12-04T13:54:31.338Z,97996.45
2022-12-04T13:57:14.858Z,97996.12
2022-12-04T13:59:44.593Z,97998.08
2022-12-04T14:02:38.422Z,97994.84
2022-12-04T14:05:11.559Z,97993.67
2022-12-04T14:08:19.494Z,97991.89
2022-12-04T14:11:05.934Z,97985.39
2022-12-04T14:13:47.325Z,97986.52
2022-12-04T14:16:30.898Z,97984.14
2022-12-04T14:19:02.029Z,97986.80
2022-12-04T14:22:00.239Z,97992.48
2022-12-04T14:24:39.296Z,97990.94
2022-12-04T14:27:35.022Z,97988.09
2022-12-04T14:30:04.417Z,97992.61
2022-12-04T14:32:35.667Z,97996.16
2022-12-04T14:35:04.245Z,98001.43
2022-12-04T14:37:38.285Z,98002.29
2022-12-04T14:40:16.411Z,97998.55
2022-12-04T14:42:49.272Z,97991.55
2022-12-04T14:45:38.945Z,97994.12
2022-12-04T14:48:09.862Z,97994.17
2022-12-04T14:50:46.873Z,97999.21
2022-12-04T14:53:35.313Z,97994.42
2022-12-04T14:56:40.864Z,97994.42
2022-12-04T14:59:21.612Z,98003.48
2022-12-04T15:01:52.570Z,98007.65
2022-12-04T15:04:29.492Z,98007.52
2022-12-04T15:07:00.580Z,98005.58
2022-12-04T15:09:48.346Z,98007.29
2022-12-04T15:12:35.140Z,98008.19
2022-12-04T15:15:13.020Z,98006.41
2022-12-04T15:17:41.340Z,98006.61
2022-12-04T15:20:14.591Z,98010.20
2022-12-04T15:22:43.688Z,98013.85
2022-12-04T15:25:24.459Z,98013.05
2022-12-04T15:27:59.176Z,98013.36
2022-12-04T15:30:30.927Z,98017.71
2022-12-04T15:32:59.425Z,98019.05
2022-12-04T15:35:33.027Z,98021.52
2022-12-04T15:38:01.782Z,98019.80
2022-12-04T15:40:30.911Z,98021.40
2022-12-04T15:43:17.118Z,98022.30
2022-12-04T15:45:45.392Z,98021.23
2022-12-04T15:48:23.902Z,98019.50
2022-12-04T15:51:04.573Z,98024.25
2022-12-04T15:53:37.357Z,98030.73
2022-12-04T15:56:16.380Z,98035.14
2022-12-04T15:59:02.782Z,98034.58
2022-12-04T16:01:41.182Z,98033.91
2022-12-04T16:04:22.448Z,98032.49
2022-12-04T16:06:54.507Z,98029.64
2022-12-04T16:09:26.067Z,98024.04
2022-12-04T16:12:03.375Z,98024.71
2022-12-04T16:14:31.524Z,98023.98
2022-12-04T16:17:05.793Z,98027.06
2022-12-04T16:19:41.405Z,98029.45
2022-12-04T16:22:20.717Z,98026.02
2022-12-04T16:24:49.209Z,98026.59
2022-12-04T16:27:20.353Z,98025.52
2022-12-04T16:29:50.172Z,98023.45
2022-12-04T16:32:21.084Z,98018.79
2022-12-04T16:34:49.794Z,98023.38
2022-12-04T16:37:20.965Z,98026.39
2022-12-04T16:39:49.349Z,98033.43
2022-12-04T16:42:17.384Z,98032.41
2022-12-04T16:44:46.155Z,98034.37
2022-12-04T16:47:15.200Z,98035.98
2022-12-04T16:49:45.399Z,98040.20
2022-12-04T16:52:14.789Z,98033.92
2022-12-04T16:54:42.863Z,98030.40
2022-12-04T16:57:11.244Z,98027.73
2022-12-04T16:59:39.520Z,98027.66
2022-12-04T17:02:26.228Z,98032.40
2022-12-04T17:04:57.438Z,98030.48
2022-12-04T17:07:26.058Z,98028.96
2022-12-04T17:09:54.183Z,98032.19
2022-12-04T17:12:22.366Z,98030.46
2022-12-04T17:14:50.683Z,98029.03
2022-12-04T17:17:18.702Z,98033.27
2022-12-04T17:19:47.034Z,98032.40
2022-12-04T17:22:16.445Z,98032.38
2022-12-04T17:24:50.247Z,98033.31
2022-12-04T17:27:23.756Z,98036.34
2022-12-04T17:29:51.960Z,98037.29
2022-12-04T17:32:20.093Z,98039.91
2022-12-04T17:34:48.373Z,98042.65
2022-12-04T17:37:16.547Z,98041.27
2022-12-04T17:39:44.724Z,98040.15
2022-12-04T17:42:13.151Z,98039.38
2022-12-04T17:44:41.128Z,98041.38
2022-12-04T17:47:09.658Z,98043.35
2022-12-04T17:49:38.111Z,98044.08
2022-12-04T17:52:06.355Z,98044.21
2022-12-04T17:54:35.066Z,98044.69
2022-12-04T17:57:03.473Z,98043.23
2022-12-04T17:59:31.714Z,98043.16
2022-12-04T18:01:59.928Z,98042.89
2022-12-04T18:04:28.305Z,98039.53
2022-12-04T18:06:56.648Z,98035.88
2022-12-04T18:09:24.760Z,98032.75
2022-12-04T18:11:52.840Z,98031.35
2022-12-04T18:14:23.946Z,98033.09
2022-12-04T18:16:54.263Z,98035.52
2022-12-04T18:19:24.824Z,98034.14
2022-12-04T18:21:54.432Z,98035.92
2022-12-04T18:24:23.947Z,98038.73
2022-12-04T18:26:52.730Z,98038.56
2022-12-04T18:29:25.100Z,98045.16
2022-12-04T18:31:53.424Z,98044.83
2022-12-04T18:34:22.134Z,98046.09
2022-12-04T18:36:50.858Z,98044.48
2022-12-04T18:39:22.199Z,98049.01
2022-12-04T18:41:51.538Z,98042.73
2022-12-04T18:44:19.780Z,98043.61
2022-12-04T18:46:47.751Z,98047.77
2022-12-04T18:49:15.926Z,98045.76
2022-12-04T18:51:49.594Z,98048.95
2022-12-04T18:54:21.278Z,98051.39
2022-12-04T18:56:49.722Z,98046.88
2022-12-04T18:59:26.437Z,98041.28
2022-12-04T19:01:55.974Z,98045.03
2022-12-04T19:04:25.858Z,98043.09
2022-12-04T19:06:56.199Z,98047.84
2022-12-04T19:09:54.395Z,98050.08
2022-12-04T19:12:16.193Z,98044.98
2022-12-04T19:14:44.362Z,98045.55
2022-12-04T19:17:12.511Z,98046.28
2022-12-04T19:19:41.021Z,98044.27
2022-12-04T19:22:09.111Z,98046.98
2022-12-04T19:24:37.396Z,98052.58
2022-12-04T19:27:11.623Z,98053.21
2022-12-04T19:29:40.792Z,98054.21
2022-12-04T19:32:10.880Z,98053.39
2022-12-04T19:34:39.007Z,98054.64
2022-12-04T19:37:07.825Z,98057.83
2022-12-04T19:39:37.700Z,98060.53
2022-12-04T19:42:06.083Z,98064.10
2022-12-04T19:44:50.086Z,98063.69
2022-12-04T19:47:19.144Z,98065.03
2022-12-04T19:49:47.274Z,98075.10
2022-12-04T19:52:15.519Z,98082.64
2022-12-04T19:54:43.716Z,98084.09
2022-12-04T19:57:12.929Z,98082.77
2022-12-04T19:59:57.484Z,98086.13
2022-12-04T20:02:25.702Z,98084.66
2022-12-04T20:04:54.639Z,98081.77
2022-12-04T20:07:23.019Z,98086.14
2022-12-04T20:09:52.607Z,98092.80
2022-12-04T20:12:21.132Z,98097.11
2022-12-04T20:14:49.207Z,98098.01
2022-12-04T20:17:17.466Z,98100.05
2022-12-04T20:19:45.720Z,98103.68
2022-12-04T20:22:13.810Z,98100.38
2022-12-04T20:24:43.210Z,98097.45
2022-12-04T20:27:12.105Z,98099.86
2022-12-04T20:29:40.188Z,98099.29
2022-12-04T20:32:08.251Z,98102.14
2022-12-04T20:34:43.071Z,98105.14
2022-12-04T20:37:11.949Z,98103.86
2022-12-04T20:39:40.490Z,98108.19
2022-12-04T20:42:08.498Z,98108.01
2022-12-04T20:44:47.393Z,98110.38
2022-12-04T20:47:16.308Z,98113.77
2022-12-04T20:49:44.274Z,98113.30
2022-12-04T20:52:12.390Z,98117.63
2022-12-04T20:54:41.707Z,98117.11
2022-12-04T20:57:10.639Z,98117.39
2022-12-04T20:59:38.681Z,98122.18
2022-12-04T21:02:07.205Z,98121.52
2022-12-04T21:04:37.957Z,98120.52
2022-12-04T21:07:06.721Z,98118.95
2022-12-04T21:09:34.799Z,98118.70
2022-12-04T21:12:24.279Z,98114.78
2022-12-04T21:15:11.285Z,98120.38
2022-12-04T21:17:40.486Z,98122.52
2022-12-04T21:20:10.935Z,98117.36
2022-12-04T21:22:39.597Z,98115.20
2022-12-04T21:25:09.034Z,98116.70
2022-12-04T21:27:37.276Z,98118.59
2022-12-04T21:30:08.401Z,98116.34
2022-12-04T21:32:36.590Z,98117.27
2022-12-04T21:35:05.176Z,98120.15
2022-12-04T21:37:34.578Z,98119.16
2022-12-04T21:40:03.885Z,98123.55
2022-12-04T21:42:32.571Z,98124.95
2022-12-04T21:45:02.395Z,98126.95
2022-12-04T21:47:31.415Z,98120.33
2022-12-04T21:49:59.820Z,98116.16
2022-12-04T21:52:28.183Z,98124.89
2022-12-04T21:54:56.928Z,98125.37
2022-12-04T21:57:25.103Z,98123.80
2022-12-04T21:59:53.171Z,98124.71
2022-12-04T22:02:21.515Z,98113.52
2022-12-04T22:04:49.925Z,98112.52
2022-12-04T22:07:18.413Z,98111.02
2022-12-04T22:09:48.258Z,98118.23
2022-12-04T22:15:05.045Z,98114.45
2022-12-04T22:17:33.016Z,98113.23
2022-12-04T22:20:00.994Z,98113.71
2022-12-04T22:22:29.331Z,98115.48
2022-12-04T22:24:59.383Z,98115.59
2022-12-04T22:27:29.401Z,98112.70
2022-12-04T22:29:57.679Z,98114.20
2022-12-04T22:32:25.767Z,98118.32
2022-12-04T22:34:53.931Z,98119.80
2022-12-04T22:37:21.912Z,98121.84
2022-12-04T22:39:49.994Z,98125.74
2022-12-04T22:42:17.960Z,98129.20
2022-12-04T22:44:46.028Z,98129.39
2022-12-04T22:47:14.180Z,98129.58
2022-12-04T22:49:42.661Z,98128.73
2022-12-04T22:52:10.776Z,98128.89
2022-12-04T22:54:38.807Z,98129.11
2022-12-04T22:57:07.287Z,98127.40
2022-12-04T22:59:35.361Z,98129.67
2022-12-04T23:02:03.943Z,98135.59
2022-12-04T23:04:32.271Z,98132.75
2022-12-04T23:07:00.406Z,98133.08
2022-12-04T23:09:28.573Z,98133.33
2022-12-04T23:11:57.154Z,98134.65
2022-12-04T23:14:27.311Z,98137.32
2022-12-04T23:16:56.463Z,98132.91
2022-12-04T23:19:24.474Z,98128.71
2022-12-04T23:21:56.914Z,98131.23
2022-12-04T23:24:26.184Z,98132.95
2022-12-04T23:26:54.502Z,98129.73
2022-12-04T23:29:51.573Z,98131.59
2022-12-04T23:32:10.565Z,98131.51
2022-12-04T23:34:38.984Z,98131.50
2022-12-04T23:37:06.952Z,98126.73
2022-12-04T23:39:35.128Z,98129.48
2022-12-04T23:42:03.610Z,98131.70
2022-12-04T23:44:31.687Z,98134.39
2022-12-04T23:46:59.996Z,98135.72
2022-12-04T23:49:28.242Z,98133.89
2022-12-04T23:51:56.239Z,98135.12
2022-12-04T23:54:24.290Z,98136.29
2022-12-04T23:56:52.356Z,98138.11
2022-12-04T23:59:22.170Z,98140.34
